Time;durP1;ratioP1;P1;durP2;ratioP2;P2;SDS_P1;SDS_P2;PMS_P1;PMS_P2;Temp;Humidity;BMP_temperature;BMP_pressure;BME280_temperature;BME280_humidity;BME280_pressure;Samples;Min_cycle;Max_cycle;Signal;HPM_P1;HPM_P2
2023/10/23 00:02:16;;;;;;;24.90;16.85;;;;;;;18.64;75.81;98406.94;5062557;28;20036;-88
2023/10/23 00:05:00;;;;;;;24.15;16.77;;;;;;;18.54;75.79;98397.09;5057220;28;20049;-89
2023/10/23 00:07:44;;;;;;;25.77;16.67;;;;;;;18.32;75.72;98405.28;5050854;28;20091;-87
2023/10/23 00:10:28;;;;;;;24.23;15.45;;;;;;;18.01;76.14;98399.81;5048256;28;20040;-88
2023/10/23 00:13:13;;;;;;;24.80;15.23;;;;;;;18.12;76.24;98404.16;5045551;28;20060;-89
2023/10/23 00:15:57;;;;;;;26.17;15.63;;;;;;;17.76;77.29;98403.97;5043326;28;20036;-90
2023/10/23 00:18:41;;;;;;;22.90;15.82;;;;;;;17.74;77.69;98399.94;5048306;28;20092;-90
2023/10/23 00:21:25;;;;;;;23.77;15.00;;;;;;;17.72;77.76;98396.75;5052516;28;20126;-89
2023/10/23 00:24:09;;;;;;;23.27;14.27;;;;;;;17.77;77.67;98410.84;5044664;28;20423;-90
2023/10/23 00:26:53;;;;;;;22.52;14.75;;;;;;;17.67;78.37;98410.78;5058232;28;20044;-90
2023/10/23 00:29:37;;;;;;;24.52;15.80;;;;;;;17.59;78.38;98405.97;5058068;28;20044;-90
2023/10/23 00:32:21;;;;;;;24.35;15.02;;;;;;;17.62;77.79;98400.16;5027079;28;20086;-89
2023/10/23 00:35:05;;;;;;;21.95;15.15;;;;;;;17.59;77.38;98405.97;5059082;28;20047;-89
2023/10/23 00:37:49;;;;;;;24.15;15.80;;;;;;;17.42;77.40;98398.97;5047685;28;20109;-91
2023/10/23 00:40:33;;;;;;;24.35;15.07;;;;;;;17.36;77.20;98421.22;5044376;28;20100;-90
2023/10/23 00:43:22;;;;;;;23.83;15.63;;;;;;;17.18;77.84;98412.59;5044016;28;20056;-90
2023/10/23 00:46:15;;;;;;;29.92;17.83;;;;;;;17.18;78.74;98415.25;5044749;28;20094;-89
2023/10/23 00:49:00;;;;;;;41.03;19.83;;;;;;;17.23;79.54;98406.53;5042716;28;20036;-88
2023/10/23 00:51:45;;;;;;;35.53;19.13;;;;;;;17.33;79.51;98411.13;5052891;28;20103;-87
2023/10/23 00:54:31;;;;;;;35.30;20.35;;;;;;;17.39;80.38;98420.72;5043774;28;20051;-88
2023/10/23 00:57:16;;;;;;;33.72;20.23;;;;;;;17.36;79.36;98405.31;5047044;28;20037;-88
2023/10/23 00:59:59;;;;;;;36.10;20.83;;;;;;;17.37;79.04;98412.22;5046791;28;20044;-89
2023/10/23 01:02:43;;;;;;;39.85;21.70;;;;;;;17.24;79.11;98413.44;5042209;28;20477;-87
2023/10/23 01:05:27;;;;;;;38.75;21.48;;;;;;;17.18;79.28;98409.94;5049820;28;20043;-89
2023/10/23 01:08:11;;;;;;;31.73;19.23;;;;;;;17.21;78.91;98411.31;5043451;28;20040;-90
2023/10/23 01:10:56;;;;;;;35.47;20.27;;;;;;;17.24;78.74;98413.44;5040438;28;20103;-89
2023/10/23 01:13:40;;;;;;;36.22;20.00;;;;;;;17.30;78.28;98408.97;5048503;28;20075;-88
2023/10/23 01:16:24;;;;;;;38.40;21.42;;;;;;;17.25;78.08;98423.00;5046687;28;20047;-89
2023/10/23 01:19:09;;;;;;;35.35;19.95;;;;;;;16.90;78.32;98409.16;5046716;28;20045;-87
2023/10/23 01:21:53;;;;;;;39.42;21.73;;;;;;;16.81;78.74;98437.97;5051957;28;20055;-88
2023/10/23 01:24:40;;;;;;;41.17;21.90;;;;;;;16.83;78.61;98429.75;5046295;28;20095;-88
2023/10/23 01:27:25;;;;;;;38.80;21.08;;;;;;;16.85;79.86;98430.31;5043541;28;20055;-89
2023/10/23 01:30:10;;;;;;;39.67;21.13;;;;;;;16.92;78.78;98430.91;5036345;28;20059;-89
2023/10/23 01:32:54;;;;;;;39.35;19.50;;;;;;;16.75;79.52;98428.34;5049177;28;20052;-89
2023/10/23 01:35:38;;;;;;;32.22;17.88;;;;;;;16.59;79.27;98424.75;5046431;28;20052;-90
2023/10/23 01:38:22;;;;;;;33.25;18.50;;;;;;;16.65;79.58;98433.56;5046326;28;20062;-87
2023/10/23 01:41:06;;;;;;;32.80;19.15;;;;;;;16.73;79.66;98440.28;5048598;28;20045;-88
2023/10/23 01:43:50;;;;;;;34.45;18.23;;;;;;;16.66;79.99;98435.16;5045174;28;20444;-87
2023/10/23 01:46:34;;;;;;;32.63;17.67;;;;;;;16.70;79.65;98437.06;5051721;28;20039;-88
2023/10/23 01:49:18;;;;;;;32.00;17.17;;;;;;;16.61;80.08;98441.19;5041606;28;20107;-89
2023/10/23 01:52:02;;;;;;;30.75;17.63;;;;;;;16.46;80.48;98435.72;5045273;28;20044;-89
2023/10/23 01:54:50;;;;;;;31.10;17.90;;;;;;;16.46;81.34;98448.97;5049274;28;20501;-88
2023/10/23 01:57:34;;;;;;;29.17;16.70;;;;;;;16.50;80.88;98442.13;5046972;28;20502;-88
2023/10/23 02:00:18;;;;;;;32.13;17.05;;;;;;;16.45;81.45;98442.09;5044873;28;20063;-88
2023/10/23 02:03:02;;;;;;;30.33;16.73;;;;;;;16.49;81.00;98430.75;5041811;28;20548;-91
2023/10/23 02:05:47;;;;;;;30.55;16.83;;;;;;;16.58;81.94;98451.50;5046464;28;20120;-89
2023/10/23 02:08:31;;;;;;;30.45;17.95;;;;;;;16.89;81.94;98459.75;5046298;28;20047;-89
2023/10/23 02:11:15;;;;;;;34.33;17.98;;;;;;;17.14;81.20;98459.25;5044495;28;20103;-89
2023/10/23 02:14:00;;;;;;;30.42;17.35;;;;;;;17.33;81.34;98458.88;5043156;28;20080;-89
2023/10/23 02:16:43;;;;;;;33.17;17.70;;;;;;;17.32;81.80;98466.00;5045213;28;20406;-89
2023/10/23 02:19:29;;;;;;;35.58;18.55;;;;;;;17.58;81.35;98452.16;5048738;28;20052;-88
2023/10/23 02:22:14;;;;;;;30.95;16.75;;;;;;;17.49;81.24;98442.00;5047765;28;20190;-89
2023/10/23 02:24:58;;;;;;;34.15;17.17;;;;;;;17.52;81.51;98453.94;5045969;28;20052;-89
2023/10/23 02:27:41;;;;;;;33.58;18.13;;;;;;;17.78;81.06;98462.88;5050942;28;20048;-89
2023/10/23 02:30:26;;;;;;;30.77;18.40;;;;;;;17.84;80.87;98456.53;5048568;28;20039;-88
2023/10/23 02:33:10;;;;;;;30.50;16.92;;;;;;;17.76;81.06;98450.91;5048320;28;20064;-90
2023/10/23 02:35:54;;;;;;;27.50;16.63;;;;;;;17.82;81.29;98448.03;5044808;28;20082;-89
2023/10/23 02:38:37;;;;;;;30.13;16.35;;;;;;;17.93;81.00;98456.09;5047007;28;20402;-89
2023/10/23 02:41:22;;;;;;;24.52;15.63;;;;;;;18.10;80.60;98451.41;5049969;28;20068;-88
2023/10/23 02:44:06;;;;;;;27.17;15.98;;;;;;;18.00;80.52;98456.63;5044602;28;20028;-88
2023/10/23 02:46:50;;;;;;;25.40;14.60;;;;;;;18.03;80.63;98448.19;5046035;28;20498;-89
2023/10/23 02:49:34;;;;;;;25.27;14.90;;;;;;;18.10;80.20;98451.41;5047042;28;20514;-89
2023/10/23 02:52:18;;;;;;;26.10;14.63;;;;;;;18.15;80.05;98465.78;5045153;28;20564;-90
2023/10/23 02:55:02;;;;;;;23.15;13.65;;;;;;;17.93;80.51;98470.13;5039367;28;20115;-89
2023/10/23 02:57:46;;;;;;;20.27;12.07;;;;;;;17.78;80.59;98465.53;5043011;28;20068;-89
2023/10/23 03:00:30;;;;;;;20.85;13.35;;;;;;;17.65;80.65;98460.69;5039507;28;20064;-88
2023/10/23 03:03:14;;;;;;;37.70;13.20;;;;;;;17.59;80.26;98462.50;5041984;28;20466;-89
2023/10/23 03:05:58;;;;;;;55.13;14.68;;;;;;;17.46;80.61;98463.72;5057079;28;20044;-89
2023/10/23 03:08:43;;;;;;;22.33;12.88;;;;;;;17.42;79.99;98458.16;5051281;28;20139;-89
2023/10/23 03:11:27;;;;;;;25.83;13.50;;;;;;;17.50;79.55;98456.88;5052718;28;20056;-90
2023/10/23 03:14:11;;;;;;;20.08;12.65;;;;;;;17.45;80.02;98461.34;5049238;28;20040;-88
2023/10/23 03:16:55;;;;;;;20.60;12.27;;;;;;;17.43;80.21;98443.00;5049235;28;20041;-90
2023/10/23 03:19:39;;;;;;;18.73;12.10;;;;;;;17.70;79.68;98458.06;5056175;28;20044;-90
2023/10/23 03:22:23;;;;;;;19.20;12.27;;;;;;;17.53;80.00;98445.75;5058800;28;20028;-88
2023/10/23 03:25:08;;;;;;;20.02;12.30;;;;;;;17.61;79.56;98443.66;5053339;28;20056;-89
2023/10/23 03:27:52;;;;;;;19.20;11.85;;;;;;;17.55;79.20;98441.00;5050828;28;20064;-87
2023/10/23 03:30:36;;;;;;;53.75;13.38;;;;;;;17.18;79.46;98444.41;5048961;28;20040;-87
2023/10/23 03:33:20;;;;;;;32.20;12.48;;;;;;;17.10;79.84;98439.59;5051212;28;20043;-89
2023/10/23 03:36:05;;;;;;;21.08;11.60;;;;;;;17.10;79.99;98452.84;5032053;28;20132;-90
2023/10/23 03:38:49;;;;;;;35.88;12.40;;;;;;;17.15;80.00;98442.28;5044889;28;20886;-88
2023/10/23 03:41:33;;;;;;;22.88;11.23;;;;;;;17.03;80.55;98449.59;5046594;28;20407;-88
2023/10/23 03:44:17;;;;;;;59.92;14.13;;;;;;;16.80;80.30;98446.16;5040830;28;20052;-88
2023/10/23 03:47:01;;;;;;;18.33;10.90;;;;;;;16.96;80.42;98444.44;5045109;28;20151;-88
2023/10/23 03:49:46;;;;;;;28.00;13.30;;;;;;;16.98;80.16;98448.50;5048556;28;20044;-91
2023/10/23 03:52:30;;;;;;;21.27;12.20;;;;;;;17.06;80.12;98454.38;5042046;28;20048;-88
2023/10/23 03:55:14;;;;;;;26.25;12.05;;;;;;;17.16;80.13;98465.09;5050480;28;20064;-89
2023/10/23 03:57:58;;;;;;;27.45;12.75;;;;;;;17.16;79.67;98465.09;5054538;28;20072;-89
2023/10/23 04:00:42;;;;;;;21.27;13.02;;;;;;;17.12;79.45;98450.75;5046407;28;20063;-88
2023/10/23 04:03:26;;;;;;;20.42;11.48;;;;;;;17.12;79.70;98471.94;5044099;28;20052;-89
2023/10/23 04:06:10;;;;;;;36.25;12.35;;;;;;;16.84;79.71;98450.72;5050639;28;20151;-87
2023/10/23 04:08:54;;;;;;;18.80;11.25;;;;;;;16.85;80.28;98454.16;5044990;28;20600;-88
2023/10/23 04:11:38;;;;;;;19.20;11.07;;;;;;;16.78;80.50;98461.50;5042577;28;20136;-90
2023/10/23 04:14:22;;;;;;;16.15;9.20;;;;;;;16.86;80.06;98463.72;5047323;28;20144;-88
2023/10/23 04:17:07;;;;;;;18.98;10.02;;;;;;;16.84;79.01;98460.50;5048293;28;20031;-89
2023/10/23 04:19:51;;;;;;;22.45;8.82;;;;;;;16.95;79.52;98470.19;5047499;28;20063;-88
2023/10/23 04:22:35;;;;;;;24.15;8.90;;;;;;;17.06;78.88;98464.97;5045003;28;20063;-89
2023/10/23 04:25:20;;;;;;;16.45;8.23;;;;;;;17.10;79.20;98471.41;5040628;28;20051;-88
2023/10/23 04:28:04;;;;;;;24.75;9.05;;;;;;;16.96;79.15;98458.53;5044338;28;20040;-88
2023/10/23 04:30:48;;;;;;;16.45;7.93;;;;;;;17.24;78.66;98466.50;5043991;28;20056;-88
2023/10/23 04:33:33;;;;;;;26.65;8.02;;;;;;;16.94;78.76;98473.06;5047128;28;20039;-88
2023/10/23 04:36:17;;;;;;;39.25;8.95;;;;;;;16.83;78.78;98453.59;5042092;28;20101;-87
2023/10/23 04:39:01;;;;;;;32.45;8.85;;;;;;;16.83;78.58;98458.91;5040440;28;20411;-89
2023/10/23 04:41:45;;;;;;;18.02;9.10;;;;;;;16.94;78.71;98463.28;5043416;28;20526;-88
2023/10/23 04:44:29;;;;;;;22.98;8.13;;;;;;;17.03;79.01;98462.84;5049095;28;20039;-89
2023/10/23 04:47:13;;;;;;;47.85;9.57;;;;;;;16.74;78.67;98447.16;5044909;28;20518;-90
2023/10/23 04:49:57;;;;;;;18.42;8.40;;;;;;;16.88;79.28;98437.75;5042061;28;20072;-89
2023/10/23 04:52:42;;;;;;;14.52;8.20;;;;;;;16.94;79.11;98444.72;5040907;28;20158;-89
2023/10/23 04:55:30;;;;;;;35.45;8.50;;;;;;;16.85;78.90;98439.06;5041037;28;20510;-89
2023/10/23 04:58:14;;;;;;;28.08;8.73;;;;;;;16.64;79.04;98432.75;5043236;28;20049;-88
2023/10/23 05:00:58;;;;;;;23.63;8.52;;;;;;;16.66;79.00;98428.00;5051584;28;20060;-88
2023/10/23 05:03:42;;;;;;;39.20;8.30;;;;;;;16.67;79.04;98426.94;5037873;28;20526;-89
2023/10/23 05:06:26;;;;;;;20.10;7.57;;;;;;;16.76;78.82;98423.88;5049834;28;20156;-86
2023/10/23 05:09:12;;;;;;;16.95;8.70;;;;;;;16.69;79.54;98424.84;5048763;28;20036;-88
2023/10/23 05:11:56;;;;;;;18.33;8.55;;;;;;;16.74;79.23;98433.91;5045304;28;20040;-88
2023/10/23 05:14:40;;;;;;;25.08;8.88;;;;;;;16.70;79.19;98430.97;5043072;28;20044;-87
2023/10/23 05:17:24;;;;;;;18.70;9.82;;;;;;;16.77;78.82;98420.16;5048722;28;20139;-88
2023/10/23 05:20:08;;;;;;;19.23;9.25;;;;;;;16.89;78.97;98428.75;5051381;28;20048;-88
2023/10/23 05:22:53;;;;;;;29.83;10.55;;;;;;;16.83;79.12;98419.16;5045894;28;20043;-90
2023/10/23 05:25:37;;;;;;;25.08;10.50;;;;;;;16.93;78.76;98429.88;5040740;28;20116;-89
2023/10/23 05:28:20;;;;;;;19.77;10.25;;;;;;;17.03;79.01;98425.72;5049433;28;20044;-87
2023/10/23 05:31:04;;;;;;;25.30;10.63;;;;;;;17.05;78.80;98427.09;5044158;28;20040;-90
2023/10/23 05:33:49;;;;;;;25.85;11.05;;;;;;;17.12;78.87;98426.88;5045867;28;20036;-87
2023/10/23 05:36:33;;;;;;;18.25;9.52;;;;;;;17.23;78.45;98435.72;5048303;28;20068;-88
2023/10/23 05:39:17;;;;;;;24.55;10.82;;;;;;;17.11;78.72;98427.94;5040535;28;20122;-89
2023/10/23 05:42:01;;;;;;;21.23;9.80;;;;;;;17.14;78.60;98432.72;5045430;28;20084;-89
2023/10/23 05:44:45;;;;;;;25.83;10.90;;;;;;;17.25;78.25;98442.34;5048695;28;20064;-88
2023/10/23 05:47:29;;;;;;;24.65;9.90;;;;;;;17.34;78.49;98437.38;5042080;28;20064;-87
2023/10/23 05:50:14;;;;;;;22.33;11.55;;;;;;;17.12;78.61;98427.66;5047199;28;20509;-88
2023/10/23 05:52:58;;;;;;;46.72;11.82;;;;;;;16.96;79.21;98426.72;5040302;28;20096;-88
2023/10/23 05:55:42;;;;;;;27.63;10.52;;;;;;;17.15;78.97;98436.97;5041285;28;20557;-89
2023/10/23 05:58:26;;;;;;;18.60;9.43;;;;;;;17.36;78.68;98437.13;5045028;28;20126;-87
2023/10/23 06:01:11;;;;;;;26.67;12.95;;;;;;;17.31;78.75;98429.16;5054017;28;20044;-87
2023/10/23 06:03:55;;;;;;;30.35;12.38;;;;;;;17.26;78.94;98448.47;5043747;28;20066;-89
2023/10/23 06:06:38;;;;;;;37.42;12.52;;;;;;;17.32;78.60;98444.78;5046674;28;20024;-88
2023/10/23 06:09:22;;;;;;;24.58;12.38;;;;;;;17.22;79.19;98440.22;5042241;28;20423;-88
2023/10/23 06:12:07;;;;;;;20.40;10.85;;;;;;;17.33;78.98;98458.88;5052048;28;20040;-90
2023/10/23 06:14:51;;;;;;;18.42;10.30;;;;;;;17.08;79.24;98410.66;5042267;28;20119;-87
2023/10/23 06:17:35;;;;;;;26.08;13.23;;;;;;;17.41;79.16;98461.03;5049137;28;20510;-88
2023/10/23 06:20:19;;;;;;;26.52;12.35;;;;;;;17.37;78.96;98444.03;5048067;28;20534;-89
2023/10/23 06:23:03;;;;;;;36.45;21.17;;;;;;;17.53;79.06;98464.31;5050378;28;20052;-89
2023/10/23 06:25:56;;;;;;;37.70;21.00;;;;;;;17.25;79.20;98458.25;5057015;28;20049;-89
2023/10/23 06:28:40;;;;;;;37.25;21.63;;;;;;;17.09;80.01;98460.00;5056361;28;20064;-89
2023/10/23 06:31:24;;;;;;;33.78;17.60;;;;;;;17.13;80.33;98461.06;5044382;28;20088;-91
2023/10/23 06:34:08;;;;;;;28.73;14.63;;;;;;;17.08;80.65;98453.09;5044051;28;20035;-86
2023/10/23 06:36:53;;;;;;;41.60;15.77;;;;;;;17.10;80.90;98458.16;5046784;28;20040;-88
2023/10/23 06:39:37;;;;;;;43.47;17.77;;;;;;;17.24;81.27;98467.28;5050225;28;20051;-89
2023/10/23 06:42:20;;;;;;;98.95;19.98;;;;;;;17.29;81.78;98461.22;5048370;28;20086;-86
2023/10/23 06:45:05;;;;;;;22.40;10.82;;;;;;;17.33;81.69;98464.19;5046812;28;20055;-86
2023/10/23 06:47:49;;;;;;;138.27;16.13;;;;;;;17.27;81.23;98456.16;5046002;28;20040;-89
2023/10/23 06:50:33;;;;;;;30.60;12.82;;;;;;;17.51;81.46;98460.31;5047896;28;20530;-87
2023/10/23 06:53:17;;;;;;;35.58;12.15;;;;;;;17.49;81.57;98473.03;5044296;28;20049;-89
2023/10/23 06:56:02;;;;;;;41.28;12.48;;;;;;;17.53;80.50;98479.44;5047626;28;20040;-87
2023/10/23 06:58:46;;;;;;;37.85;11.73;;;;;;;17.53;81.12;98471.47;5062635;28;20047;-87
2023/10/23 07:01:30;;;;;;;24.13;10.98;;;;;;;17.54;81.16;98468.56;5048551;28;20407;-89
2023/10/23 07:04:14;;;;;;;35.95;10.65;;;;;;;17.73;80.96;98486.75;5048418;28;20051;-89
2023/10/23 07:06:58;;;;;;;34.83;11.50;;;;;;;17.75;81.04;98475.88;5053607;28;20043;-89
2023/10/23 07:09:42;;;;;;;34.60;11.60;;;;;;;17.78;80.80;98481.47;5050963;28;20398;-89
2023/10/23 07:12:26;;;;;;;77.03;12.07;;;;;;;17.80;79.94;98486.53;5047065;28;20040;-89
2023/10/23 07:15:10;;;;;;;28.88;10.52;;;;;;;17.76;81.07;98477.47;5049031;28;20047;-90
2023/10/23 07:17:55;;;;;;;20.08;9.65;;;;;;;18.01;80.84;98490.09;5047741;28;20075;-90
2023/10/23 07:20:39;;;;;;;26.50;10.23;;;;;;;18.04;80.38;98494.13;5051599;28;20044;-87
2023/10/23 07:23:23;;;;;;;45.65;11.45;;;;;;;18.06;80.85;98487.50;5042210;28;20117;-86
2023/10/23 07:26:11;;;;;;;24.00;10.93;;;;;;;18.11;80.85;98492.84;5045556;28;20124;-86
2023/10/23 07:28:55;;;;;;;18.48;9.57;;;;;;;18.09;81.15;98502.94;5047273;28;20398;-87
2023/10/23 07:31:39;;;;;;;20.77;10.30;;;;;;;18.11;81.19;98503.47;5046347;28;20043;-87
2023/10/23 07:34:22;;;;;;;23.27;10.80;;;;;;;18.31;80.83;98502.00;5047329;28;20092;-88
2023/10/23 07:37:06;;;;;;;36.90;11.00;;;;;;;18.18;80.49;98494.47;5047485;28;20064;-89
2023/10/23 07:39:50;;;;;;;33.92;11.80;;;;;;;18.13;80.68;98485.44;5040122;28;20080;-89
2023/10/23 07:42:34;;;;;;;26.27;12.82;;;;;;;18.24;81.29;98509.38;5041652;28;20079;-88
2023/10/23 07:45:18;;;;;;;33.22;12.82;;;;;;;18.22;80.89;98491.06;5048321;28;20044;-84
2023/10/23 07:48:03;;;;;;;27.25;12.18;;;;;;;18.19;80.45;98486.25;5047028;28;20059;-87
2023/10/23 07:50:47;;;;;;;35.63;12.80;;;;;;;18.37;80.91;98502.78;5047076;28;20048;-86
2023/10/23 07:53:35;;;;;;;22.30;11.98;;;;;;;18.31;81.29;98504.66;5041342;28;20053;-86
2023/10/23 07:56:19;;;;;;;206.75;23.17;;;;;;;18.18;81.02;98505.09;5040303;28;20479;-85
2023/10/23 07:59:04;;;;;;;79.25;19.95;;;;;;;18.27;80.91;98500.88;5042221;28;20043;-84
2023/10/23 08:01:48;;;;;;;179.02;23.90;;;;;;;17.98;80.11;98510.03;5037504;28;20406;-84
2023/10/23 08:04:33;;;;;;;95.25;20.88;;;;;;;18.03;80.98;98506.59;5042436;28;20041;-85
2023/10/23 08:07:16;;;;;;;48.72;19.30;;;;;;;17.99;81.63;98513.47;5040850;28;20091;-77
2023/10/23 08:10:00;;;;;;;160.48;23.83;;;;;;;18.12;80.83;98499.75;5041486;28;20075;-76
2023/10/23 08:12:46;;;;;;;64.53;21.33;;;;;;;18.07;81.14;98490.97;5038697;28;20055;-76
2023/10/23 08:15:30;;;;;;;48.53;21.17;;;;;;;18.39;80.71;98495.38;5037240;28;20040;-76
2023/10/23 08:18:14;;;;;;;63.72;21.55;;;;;;;18.24;81.11;98496.91;5037463;28;20036;-77
2023/10/23 08:20:57;;;;;;;65.35;21.55;;;;;;;18.38;80.91;98505.19;5039910;28;20052;-77
2023/10/23 08:23:43;;;;;;;139.23;24.38;;;;;;;18.30;80.34;98500.38;5040663;28;20040;-77
2023/10/23 08:26:29;;;;;;;178.50;26.73;;;;;;;18.26;80.55;98496.63;5039648;28;20084;-79
2023/10/23 08:29:13;;;;;;;84.93;24.60;;;;;;;18.51;80.62;98493.28;5040070;28;20041;-78
2023/10/23 08:31:58;;;;;;;79.60;21.40;;;;;;;18.64;80.83;98492.00;5035537;28;20041;-79
2023/10/23 08:34:43;;;;;;;72.60;22.42;;;;;;;18.88;79.99;98464.16;5040698;28;20040;-78
2023/10/23 08:37:27;;;;;;;41.72;20.33;;;;;;;19.04;80.14;98486.25;5039431;28;20044;-81
2023/10/23 08:40:12;;;;;;;41.45;20.83;;;;;;;18.79;79.99;98485.94;5043472;28;20039;-83
2023/10/23 08:42:56;;;;;;;44.15;20.65;;;;;;;18.78;80.36;98480.88;5038335;28;20127;-84
2023/10/23 08:45:43;;;;;;;48.80;21.13;;;;;;;19.01;80.31;98479.63;5046607;28;20044;-82
2023/10/23 08:48:27;;;;;;;63.80;21.00;;;;;;;18.80;79.37;98484.06;5039391;28;20207;-82
2023/10/23 08:51:14;;;;;;;122.97;21.98;;;;;;;18.72;80.10;98492.56;5034286;28;20399;-80
2023/10/23 08:54:17;;;;;;;39.42;19.40;;;;;;;19.01;80.84;98487.59;5043031;28;20052;-82
2023/10/23 08:57:02;;;;;;;50.20;18.90;;;;;;;19.09;80.13;98486.28;5039848;28;20036;-82
2023/10/23 08:59:46;;;;;;;38.50;19.35;;;;;;;19.19;80.61;98491.59;5044716;28;20087;-83
2023/10/23 09:02:31;;;;;;;40.55;18.50;;;;;;;19.50;79.61;98491.63;5036122;28;20509;-83
2023/10/23 09:05:16;;;;;;;40.63;19.20;;;;;;;19.02;79.68;98491.06;5040141;28;20048;-83
2023/10/23 09:08:03;;;;;;;37.05;19.70;;;;;;;19.28;78.16;98494.53;5047057;28;20068;-85
2023/10/23 09:11:04;;;;;;;155.00;23.48;;;;;;;19.27;77.97;98487.63;5042831;28;20526;-83
2023/10/23 09:13:48;;;;;;;38.05;18.50;;;;;;;19.82;78.33;98484.41;5046718;28;20063;-83
2023/10/23 09:16:32;;;;;;;78.53;20.17;;;;;;;19.81;77.58;98486.25;5037785;28;20048;-84
2023/10/23 09:19:43;;;;;;;46.35;18.48;;;;;;;19.81;77.82;98488.91;5044983;28;20051;-83
2023/10/23 09:22:29;;;;;;;48.92;19.08;;;;;;;19.82;78.12;98482.53;5044034;28;20039;-84
2023/10/23 09:25:25;;;;;;;41.40;20.52;;;;;;;19.98;77.37;98486.00;5032503;28;20051;-80
2023/10/23 09:28:10;;;;;;;35.88;18.90;;;;;;;19.93;77.81;98482.56;5042199;28;20482;-79
2023/10/23 09:30:54;;;;;;;42.10;20.67;;;;;;;19.98;77.64;98485.19;5034366;28;20454;-78
2023/10/23 09:33:38;;;;;;;73.40;22.00;;;;;;;20.14;76.44;98493.16;5035870;28;20200;-78
2023/10/23 09:36:25;;;;;;;58.83;22.20;;;;;;;20.03;76.82;98487.06;5038894;28;20079;-77
2023/10/23 09:39:10;;;;;;;42.42;21.35;;;;;;;20.17;76.79;98481.94;5035261;28;20052;-78
2023/10/23 09:41:55;;;;;;;52.83;25.30;;;;;;;20.35;76.00;98494.66;5037096;28;20052;-79
2023/10/23 09:44:42;;;;;;;67.55;27.48;;;;;;;20.11;75.57;98484.63;5041529;28;20044;-82
2023/10/23 09:47:31;;;;;;;201.57;30.45;;;;;;;19.44;75.80;98482.03;5040311;28;20817;-77
2023/10/23 09:50:15;;;;;;;52.95;27.27;;;;;;;19.59;76.87;98477.78;5042182;28;20098;-80
2023/10/23 09:53:00;;;;;;;75.85;28.63;;;;;;;19.87;76.38;98489.72;5037623;28;20044;-81
2023/10/23 09:55:47;;;;;;;54.97;27.70;;;;;;;20.27;76.23;98490.69;5040262;28;20118;-79
2023/10/23 09:58:35;;;;;;;52.75;26.23;;;;;;;20.73;75.24;98488.88;5041059;28;20119;-85
2023/10/23 10:01:27;;;;;;;62.45;30.02;;;;;;;20.76;74.27;98482.22;5035151;28;20048;-81
2023/10/23 10:04:20;;;;;;;58.78;28.35;;;;;;;20.78;73.54;98480.88;5044734;28;20087;-80
2023/10/23 10:07:11;;;;;;;60.70;28.75;;;;;;;20.49;74.04;98475.44;5040838;28;20032;-79
2023/10/23 10:09:56;;;;;;;60.75;31.20;;;;;;;20.45;74.19;98479.72;5037942;28;20090;-80
2023/10/23 10:12:41;;;;;;;58.55;28.35;;;;;;;20.43;75.02;98474.66;5044779;28;20512;-79
2023/10/23 10:15:26;;;;;;;58.13;30.20;;;;;;;20.62;74.81;98477.47;5042921;28;20116;-79
2023/10/23 10:18:11;;;;;;;63.78;32.40;;;;;;;20.63;73.93;98476.41;5042526;28;20075;-81
2023/10/23 10:21:00;;;;;;;62.20;31.02;;;;;;;20.67;73.62;98474.81;5044111;28;20087;-83
2023/10/23 10:23:45;;;;;;;69.88;33.20;;;;;;;20.41;73.43;98485.56;5036889;28;20040;-82
2023/10/23 10:26:32;;;;;;;72.32;33.30;;;;;;;20.45;72.73;98471.72;5038719;28;20571;-80
2023/10/23 10:29:19;;;;;;;59.83;30.10;;;;;;;20.56;72.76;98467.91;5045450;28;20122;-82
2023/10/23 10:32:11;;;;;;;63.60;30.88;;;;;;;20.57;72.75;98468.72;5043563;28;20383;-78
2023/10/23 10:34:59;;;;;;;57.95;28.45;;;;;;;20.78;72.93;98472.06;5040516;28;20506;-79
